Time;durP1;ratioP1;P1;durP2;ratioP2;P2;SDS_P1;SDS_P2;PMS_P1;PMS_P2;Temp;Humidity;BMP_temperature;BMP_pressure;BME280_temperature;BME280_humidity;BME280_pressure;Samples;Min_cycle;Max_cycle;Signal;HPM_P1;HPM_P2
2022/04/18 00:02:22;;;;;;;5.25;2.60;;;6.90;54.40;;;;;;4995428;28;20081;-86
2022/04/18 00:04:48;;;;;;;2.85;2.42;;;6.80;54.40;;;;;;4993517;28;20046;-86
2022/04/18 00:07:14;;;;;;;3.53;2.30;;;6.80;54.50;;;;;;4977483;28;20672;-86
2022/04/18 00:09:40;;;;;;;3.58;2.33;;;6.70;54.60;;;;;;4976383;28;20084;-87
2022/04/18 00:12:06;;;;;;;2.55;2.00;;;6.70;54.60;;;;;;4991116;28;20019;-87
2022/04/18 00:14:32;;;;;;;3.83;2.85;;;6.70;55.20;;;;;;4975585;28;20476;-87
2022/04/18 00:16:58;;;;;;;3.13;1.98;;;6.70;54.70;;;;;;5003353;28;20022;-87
2022/04/18 00:19:24;;;;;;;6.68;2.42;;;6.70;54.80;;;;;;5005157;28;20033;-86
2022/04/18 00:21:50;;;;;;;4.60;2.42;;;6.70;54.90;;;;;;4985574;28;20361;-88
2022/04/18 00:24:17;;;;;;;4.85;2.55;;;6.70;54.80;;;;;;4986281;28;20022;-86
2022/04/18 00:26:44;;;;;;;3.53;2.30;;;6.70;54.80;;;;;;4999895;28;20026;-87
2022/04/18 00:29:10;;;;;;;3.70;2.30;;;6.60;54.90;;;;;;4993778;28;20547;-87
2022/04/18 00:31:36;;;;;;;2.30;2.10;;;6.60;54.90;;;;;;5005506;28;20214;-86
2022/04/18 00:34:02;;;;;;;8.07;2.97;;;6.60;55.00;;;;;;4992010;28;20030;-87
2022/04/18 00:36:28;;;;;;;5.35;2.70;;;6.60;55.00;;;;;;4990084;28;20050;-87
2022/04/18 00:38:53;;;;;;;3.92;2.72;;;6.60;55.10;;;;;;5004413;28;20037;-86
2022/04/18 00:41:19;;;;;;;5.20;2.63;;;6.60;55.10;;;;;;4999195;28;20030;-86
2022/04/18 00:43:49;;;;;;;4.18;2.80;;;6.50;55.20;;;;;;5000438;28;20026;-86
2022/04/18 00:46:17;;;;;;;3.72;2.50;;;6.50;55.30;;;;;;5000742;28;21575;-86
2022/04/18 00:48:43;;;;;;;3.03;2.75;;;6.50;55.30;;;;;;4997571;28;20097;-87
2022/04/18 00:51:14;;;;;;;7.05;2.90;;;6.50;55.40;;;;;;4983226;28;20026;-86
2022/04/18 00:53:41;;;;;;;3.03;2.67;;;6.50;55.50;;;;;;5002615;28;20026;-86
2022/04/18 00:56:10;;;;;;;5.07;2.72;;;6.50;55.40;;;;;;5001776;28;20155;-87
2022/04/18 00:58:36;;;;;;;2.95;2.67;;;6.40;55.50;;;;;;4999296;28;20616;-86
2022/04/18 01:01:03;;;;;;;2.75;2.40;;;6.40;55.60;;;;;;5012758;28;20038;-87
2022/04/18 01:03:30;;;;;;;5.18;3.10;;;6.30;55.60;;;;;;5000255;28;20030;-87
2022/04/18 01:06:00;;;;;;;4.10;3.10;;;6.20;55.60;;;;;;4998100;28;20026;-85
2022/04/18 01:08:28;;;;;;;3.03;2.63;;;6.20;55.80;;;;;;4997916;28;20057;-86
2022/04/18 01:10:54;;;;;;;4.13;2.72;;;6.20;55.90;;;;;;5003577;28;20023;-86
2022/04/18 01:13:19;;;;;;;4.75;3.00;;;6.10;55.90;;;;;;5000973;28;20109;-86
2022/04/18 01:15:45;;;;;;;8.70;3.47;;;6.00;55.90;;;;;;4984914;28;20023;-86
2022/04/18 01:18:11;;;;;;;4.40;3.00;;;6.00;56.00;;;;;;4977512;28;20041;-85
2022/04/18 01:20:36;;;;;;;3.10;2.53;;;5.90;56.10;;;;;;4999584;28;20026;-88
2022/04/18 01:23:05;;;;;;;4.90;2.80;;;5.80;56.10;;;;;;4990696;28;20128;-87
2022/04/18 01:30:59;;;;;;;7.22;2.88;;;5.70;56.30;;;;;;5000836;28;20037;-86
2022/04/18 01:33:25;;;;;;;3.17;2.88;;;5.60;56.40;;;;;;4983329;28;20026;-87
2022/04/18 01:35:50;;;;;;;3.95;2.88;;;5.60;56.50;;;;;;4999709;28;20053;-87
2022/04/18 01:38:16;;;;;;;5.03;3.03;;;5.60;56.30;;;;;;4998517;28;20057;-86
2022/04/18 01:40:42;;;;;;;3.92;3.22;;;5.50;56.60;;;;;;4995628;28;20022;-87
2022/04/18 01:43:07;;;;;;;7.20;3.55;;;5.50;56.70;;;;;;4981593;28;20026;-87
2022/04/18 01:45:34;;;;;;;4.60;3.00;;;5.50;56.80;;;;;;4982509;28;20129;-87
2022/04/18 01:48:00;;;;;;;3.40;3.00;;;5.50;56.80;;;;;;5000137;28;20029;-87
2022/04/18 01:50:26;;;;;;;5.68;3.10;;;5.40;56.80;;;;;;5004691;28;20461;-86
2022/04/18 01:52:52;;;;;;;5.47;3.08;;;5.30;56.90;;;;;;5011313;28;20020;-86
2022/04/18 01:55:17;;;;;;;3.92;3.10;;;5.30;57.10;;;;;;5008296;28;20034;-86
2022/04/18 01:57:43;;;;;;;4.72;3.47;;;5.30;57.20;;;;;;4994132;28;20084;-86
2022/04/18 02:00:09;;;;;;;5.60;3.58;;;5.30;57.30;;;;;;4992483;28;20034;-86
2022/04/18 02:02:35;;;;;;;7.72;3.28;;;5.30;57.30;;;;;;5008223;28;20037;-86
2022/04/18 02:05:01;;;;;;;4.32;3.03;;;5.30;57.20;;;;;;5001932;28;20027;-88
2022/04/18 02:07:28;;;;;;;5.55;3.78;;;5.30;57.20;;;;;;5003189;28;20053;-86
2022/04/18 02:09:54;;;;;;;7.13;4.18;;;5.30;57.70;;;;;;4987265;28;20027;-87
2022/04/18 02:12:26;;;;;;;7.60;3.95;;;5.30;57.20;;;;;;4999115;28;20030;-87
2022/04/18 02:14:51;;;;;;;5.43;4.10;;;5.20;57.20;;;;;;4999492;28;20396;-86
2022/04/18 02:17:17;;;;;;;7.78;4.40;;;5.10;57.10;;;;;;4980707;28;20027;-86
2022/04/18 02:19:44;;;;;;;6.60;4.15;;;5.10;57.30;;;;;;4982629;28;20053;-86
2022/04/18 02:22:10;;;;;;;6.18;4.03;;;5.10;57.40;;;;;;5003436;28;20027;-87
2022/04/18 02:24:35;;;;;;;8.52;4.38;;;5.10;57.40;;;;;;5003223;28;20622;-88
2022/04/18 02:29:29;;;;;;;6.50;4.25;;;5.00;57.50;;;;;;5013046;28;20072;-85
2022/04/18 02:34:39;;;;;;;9.18;4.60;;;4.90;57.60;;;;;;5018358;28;20513;-88
2022/04/18 02:37:04;;;;;;;6.22;4.28;;;4.90;57.60;;;;;;5008864;28;20029;-88
2022/04/18 02:39:30;;;;;;;10.38;4.50;;;4.90;57.70;;;;;;5008564;28;20116;-87
2022/04/18 02:41:57;;;;;;;8.25;4.97;;;4.90;57.70;;;;;;4995587;28;20061;-88
2022/04/18 02:44:23;;;;;;;9.88;4.28;;;4.90;57.80;;;;;;4998059;28;20033;-86
2022/04/18 02:46:49;;;;;;;6.65;4.60;;;4.80;57.70;;;;;;4989915;28;20169;-87
2022/04/18 02:49:15;;;;;;;6.50;4.55;;;4.80;57.80;;;;;;4996833;28;20026;-87
2022/04/18 02:51:41;;;;;;;6.55;4.25;;;4.70;57.90;;;;;;5017933;28;20032;-86
2022/04/18 02:54:06;;;;;;;7.90;4.40;;;4.70;57.90;;;;;;5016136;28;20030;-86
2022/04/18 02:56:32;;;;;;;6.30;4.50;;;4.70;58.00;;;;;;5016369;28;20026;-86
2022/04/18 02:58:58;;;;;;;11.18;4.95;;;4.70;58.00;;;;;;5024386;28;20014;-88
2022/04/18 03:01:23;;;;;;;7.00;4.25;;;4.60;58.00;;;;;;5009752;28;20060;-88
2022/04/18 03:03:49;;;;;;;5.28;4.20;;;4.60;58.10;;;;;;5014013;28;20033;-90
2022/04/18 03:06:14;;;;;;;8.07;4.18;;;4.60;58.10;;;;;;5011816;28;20036;-90
2022/04/18 03:08:40;;;;;;;6.85;4.43;;;4.60;58.10;;;;;;4994138;28;20053;-86
2022/04/18 03:11:07;;;;;;;8.02;4.40;;;4.50;58.20;;;;;;5001270;28;20041;-85
2022/04/18 03:13:34;;;;;;;6.65;4.13;;;4.50;58.20;;;;;;5016041;28;20044;-86
2022/04/18 03:16:00;;;;;;;6.10;4.10;;;4.50;58.30;;;;;;5005590;28;20091;-85
2022/04/18 03:18:26;;;;;;;7.53;4.78;;;4.40;58.40;;;;;;5010201;28;20033;-86
2022/04/18 03:20:52;;;;;;;7.57;4.57;;;4.50;58.40;;;;;;5000386;28;20034;-86
2022/04/18 03:23:17;;;;;;;7.72;4.10;;;4.50;58.40;;;;;;5019667;28;20393;-86
2022/04/18 03:25:43;;;;;;;6.00;3.95;;;4.50;58.30;;;;;;5030584;28;20044;-89
2022/04/18 03:28:11;;;;;;;6.72;4.15;;;4.50;58.30;;;;;;5017405;28;20018;-88
2022/04/18 03:30:38;;;;;;;6.03;4.30;;;4.50;58.30;;;;;;5019866;28;20089;-88
2022/04/18 03:33:04;;;;;;;6.60;4.65;;;4.50;58.30;;;;;;5031111;28;20040;-88
2022/04/18 03:35:30;;;;;;;7.03;4.18;;;4.50;58.30;;;;;;5011196;28;20109;-89
2022/04/18 03:40:41;;;;;;;5.60;3.70;;;4.50;58.50;;;;;;5005974;28;20056;-89
2022/04/18 03:43:07;;;;;;;4.38;3.70;;;4.50;58.40;;;;;;4995822;28;20022;-86
2022/04/18 03:45:33;;;;;;;7.82;4.07;;;4.50;58.50;;;;;;4992925;28;20040;-89
2022/04/18 03:47:58;;;;;;;7.57;3.95;;;4.50;58.40;;;;;;4984823;28;20030;-87
2022/04/18 03:50:24;;;;;;;5.72;4.00;;;4.50;58.50;;;;;;4988815;28;20203;-88
2022/04/18 03:52:50;;;;;;;5.35;3.63;;;4.50;58.50;;;;;;4990963;28;20026;-88
2022/04/18 03:55:15;;;;;;;6.10;3.85;;;4.50;58.50;;;;;;4993155;28;20030;-88
2022/04/18 03:57:41;;;;;;;6.50;3.90;;;4.50;58.50;;;;;;4995797;28;20085;-87
2022/04/18 04:00:08;;;;;;;6.68;3.83;;;4.50;58.50;;;;;;4992009;28;20029;-88
2022/04/18 04:02:34;;;;;;;5.93;3.70;;;4.50;58.50;;;;;;4993399;28;20034;-87
2022/04/18 04:05:00;;;;;;;6.43;3.72;;;4.50;58.40;;;;;;5001049;28;20035;-87
2022/04/18 04:07:25;;;;;;;5.85;3.67;;;4.50;58.40;;;;;;4997981;28;20026;-87
2022/04/18 04:09:53;;;;;;;8.05;3.78;;;4.40;58.40;;;;;;5000623;28;20056;-87
2022/04/18 04:12:27;;;;;;;7.82;3.88;;;4.40;58.50;;;;;;4989471;28;20026;-86
2022/04/18 04:14:53;;;;;;;4.22;3.10;;;4.30;58.60;;;;;;4979816;28;20121;-86
2022/04/18 04:17:21;;;;;;;4.72;3.50;;;4.30;58.50;;;;;;4985240;28;20077;-87
2022/04/18 04:19:47;;;;;;;10.18;3.60;;;4.30;58.60;;;;;;4993727;28;20062;-87
2022/04/18 04:22:12;;;;;;;4.40;3.28;;;4.30;58.70;;;;;;4991764;28;20034;-86
2022/04/18 04:24:38;;;;;;;6.13;3.42;;;4.40;58.80;;;;;;5015064;28;20467;-88
2022/04/18 04:27:04;;;;;;;6.20;3.75;;;4.40;58.80;;;;;;4995890;28;20112;-86
2022/04/18 04:29:30;;;;;;;5.88;3.40;;;4.40;59.00;;;;;;4986371;28;20033;-88
2022/04/18 04:31:56;;;;;;;4.88;3.20;;;4.50;59.10;;;;;;5002954;28;21629;-87
2022/04/18 04:34:21;;;;;;;10.00;3.58;;;4.50;59.10;;;;;;4990868;28;20049;-86
2022/04/18 04:36:47;;;;;;;4.68;3.38;;;4.50;59.10;;;;;;4984423;28;20093;-87
2022/04/18 04:39:12;;;;;;;7.30;3.50;;;4.50;59.00;;;;;;4992729;28;20033;-87
2022/04/18 04:41:38;;;;;;;6.32;4.00;;;4.50;58.90;;;;;;5006384;28;20049;-87
2022/04/18 04:44:06;;;;;;;6.97;3.33;;;4.50;58.90;;;;;;5010125;28;20116;-87
2022/04/18 04:46:32;;;;;;;7.45;3.63;;;4.60;59.00;;;;;;4991540;28;20026;-87
2022/04/18 04:48:58;;;;;;;5.30;3.38;;;4.50;58.90;;;;;;5015840;28;20673;-87
2022/04/18 04:51:23;;;;;;;6.15;3.08;;;4.60;58.90;;;;;;5009750;28;20041;-85
2022/04/18 04:53:49;;;;;;;4.38;3.33;;;4.50;58.80;;;;;;5009275;28;20033;-86
2022/04/18 04:56:15;;;;;;;5.15;3.08;;;4.50;58.80;;;;;;5000211;28;20038;-90
2022/04/18 04:58:40;;;;;;;4.57;3.33;;;4.40;58.80;;;;;;4991065;28;20057;-89
2022/04/18 05:01:07;;;;;;;4.90;3.22;;;4.40;58.80;;;;;;4994365;28;20121;-87
2022/04/18 05:03:32;;;;;;;10.50;6.30;;;4.40;58.90;;;;;;5015167;28;20030;-88
2022/04/18 05:05:58;;;;;;;6.72;4.38;;;4.30;58.90;;;;;;4995567;28;20132;-86
2022/04/18 05:08:24;;;;;;;4.68;3.53;;;4.30;59.00;;;;;;4999894;28;20037;-88
2022/04/18 05:10:50;;;;;;;5.55;3.38;;;4.40;59.10;;;;;;4999922;28;20057;-88
2022/04/18 05:13:15;;;;;;;5.82;3.63;;;4.50;59.10;;;;;;5006360;28;20490;-87
2022/04/18 05:15:41;;;;;;;5.93;3.20;;;4.60;59.20;;;;;;5001042;28;20061;-88
2022/04/18 05:18:06;;;;;;;5.57;3.20;;;4.80;59.30;;;;;;5004800;28;20034;-87
2022/04/18 05:20:32;;;;;;;8.25;3.53;;;4.90;59.30;;;;;;5009089;28;20287;-87
2022/04/18 05:22:58;;;;;;;5.45;3.38;;;5.10;59.30;;;;;;4993780;28;20033;-87
2022/04/18 05:25:24;;;;;;;3.92;2.97;;;5.20;59.40;;;;;;5007276;28;20474;-89
2022/04/18 05:27:51;;;;;;;6.57;3.75;;;5.30;59.50;;;;;;4996702;28;20045;-86
2022/04/18 05:30:16;;;;;;;7.43;4.00;;;5.40;59.60;;;;;;5009098;28;20022;-88
2022/04/18 05:32:43;;;;;;;6.38;3.30;;;5.50;59.60;;;;;;4993082;28;20049;-87
2022/04/18 05:35:09;;;;;;;4.75;3.22;;;5.60;59.60;;;;;;5014479;28;20062;-86
2022/04/18 05:37:34;;;;;;;6.40;3.47;;;5.70;59.50;;;;;;5000508;28;20030;-88
2022/04/18 05:40:00;;;;;;;6.32;3.53;;;5.80;59.40;;;;;;5012061;28;20557;-87
2022/04/18 05:42:26;;;;;;;5.65;3.60;;;6.00;59.30;;;;;;4998248;28;20123;-87
2022/04/18 05:44:52;;;;;;;4.90;3.25;;;6.00;59.10;;;;;;4998273;28;20026;-88
2022/04/18 05:47:17;;;;;;;4.95;3.38;;;6.10;59.00;;;;;;5000273;28;20093;-86
2022/04/18 05:49:43;;;;;;;5.75;3.20;;;6.20;58.90;;;;;;5000174;28;20084;-87
2022/04/18 05:52:08;;;;;;;4.22;3.30;;;6.20;58.70;;;;;;5014158;28;20041;-87
2022/04/18 05:54:34;;;;;;;5.38;3.00;;;6.20;58.70;;;;;;4995686;28;20029;-87
2022/04/18 05:57:03;;;;;;;6.88;3.33;;;6.20;58.70;;;;;;5000520;28;20532;-88
2022/04/18 05:59:28;;;;;;;5.13;3.17;;;6.20;58.70;;;;;;5028106;28;20022;-88
2022/04/18 06:01:54;;;;;;;4.25;3.20;;;6.20;58.70;;;;;;4994968;28;20033;-89
2022/04/18 06:04:19;;;;;;;6.03;2.92;;;6.30;58.90;;;;;;4999837;28;20036;-87
2022/04/18 06:06:45;;;;;;;5.68;2.83;;;6.30;58.90;;;;;;4992453;28;20116;-88
2022/04/18 06:09:11;;;;;;;4.13;2.95;;;6.30;58.90;;;;;;5004622;28;20029;-87
2022/04/18 06:11:36;;;;;;;4.55;2.92;;;6.30;59.00;;;;;;4997512;28;20030;-88
2022/04/18 06:14:02;;;;;;;4.32;2.85;;;6.40;59.20;;;;;;4995607;28;20061;-88
2022/04/18 06:16:28;;;;;;;6.18;3.28;;;6.40;59.10;;;;;;4994319;28;20025;-86
2022/04/18 06:18:54;;;;;;;4.22;3.10;;;6.40;59.10;;;;;;5017780;28;20360;-88
2022/04/18 06:21:19;;;;;;;6.10;3.00;;;6.50;59.30;;;;;;5014995;28;20069;-86
2022/04/18 06:23:45;;;;;;;4.05;2.90;;;6.50;59.20;;;;;;4999042;28;20026;-87
2022/04/18 06:26:11;;;;;;;4.43;2.88;;;6.60;59.30;;;;;;5017871;28;20029;-88
2022/04/18 06:28:36;;;;;;;4.90;3.13;;;6.60;59.20;;;;;;5014352;28;20033;-85
2022/04/18 06:31:02;;;;;;;6.80;2.97;;;6.70;59.20;;;;;;4990638;28;20026;-86
2022/04/18 06:33:29;;;;;;;5.93;3.13;;;6.80;59.10;;;;;;4995825;28;20022;-87
2022/04/18 06:35:55;;;;;;;7.53;3.35;;;6.90;59.00;;;;;;5010221;28;20038;-87
2022/04/18 06:38:21;;;;;;;6.32;3.05;;;7.00;58.90;;;;;;5011887;28;20035;-85
2022/04/18 06:40:46;;;;;;;3.65;2.83;;;7.20;58.90;;;;;;5013719;28;20029;-86
2022/04/18 06:43:12;;;;;;;4.35;2.75;;;7.30;58.90;;;;;;5020490;28;20057;-86
2022/04/18 06:45:37;;;;;;;6.68;3.00;;;7.50;58.70;;;;;;4998670;28;20062;-85
2022/04/18 06:48:03;;;;;;;6.43;3.10;;;7.70;58.60;;;;;;5014279;28;20082;-88
2022/04/18 06:50:29;;;;;;;5.15;2.90;;;7.90;58.40;;;;;;5021560;28;20018;-88
2022/04/18 06:52:55;;;;;;;5.50;3.13;;;8.10;58.20;;;;;;5009909;28;20056;-88
2022/04/18 06:55:21;;;;;;;3.45;2.63;;;8.30;58.10;;;;;;5010924;28;20048;-89
2022/04/18 06:57:46;;;;;;;5.60;3.10;;;8.40;58.00;;;;;;5081095;22;20069;-84
2022/04/18 07:00:12;;;;;;;3.95;3.00;;;8.60;57.80;;;;;;5033009;28;20393;-86
2022/04/18 07:02:45;;;;;;;3.72;2.50;;;8.80;57.70;;;;;;5032804;28;20444;-85
2022/04/18 07:05:11;;;;;;;3.92;2.78;;;9.00;57.40;;;;;;5030492;28;20076;-86
2022/04/18 07:07:37;;;;;;;4.28;2.38;;;9.20;57.10;;;;;;5044900;28;20021;-86
2022/04/18 07:10:04;;;;;;;5.30;2.72;;;9.50;56.90;;;;;;5042355;28;20021;-87
2022/04/18 07:12:30;;;;;;;3.03;2.33;;;9.80;56.70;;;;;;5029071;28;20025;-88
2022/04/18 07:14:59;;;;;;;4.15;2.72;;;10.00;56.20;;;;;;5039725;28;20057;-87
2022/04/18 07:17:25;;;;;;;4.78;2.47;;;10.30;56.00;;;;;;5019348;28;20121;-88
2022/04/18 07:19:50;;;;;;;3.92;2.60;;;10.60;55.80;;;;;;5014657;28;20029;-87
2022/04/18 07:22:16;;;;;;;5.07;3.33;;;11.00;55.60;;;;;;5018412;28;20037;-88
2022/04/18 07:24:42;;;;;;;4.60;2.53;;;11.40;55.30;;;;;;5015002;28;20026;-87
2022/04/18 07:27:08;;;;;;;3.00;2.35;;;11.70;55.10;;;;;;5011846;28;20067;-86
2022/04/18 07:29:33;;;;;;;4.70;2.40;;;12.10;54.70;;;;;;5024118;28;20519;-86
2022/04/18 07:31:59;;;;;;;4.68;2.72;;;12.40;54.20;;;;;;5019394;28;20045;-86
2022/04/18 07:34:25;;;;;;;3.80;3.00;;;12.70;53.90;;;;;;5021127;28;20034;-86
2022/04/18 07:36:50;;;;;;;4.00;2.75;;;13.10;54.10;;;;;;5051347;28;20085;-86
2022/04/18 07:39:18;;;;;;;3.97;2.40;;;13.40;53.20;;;;;;5036529;28;20041;-88
2022/04/18 07:41:43;;;;;;;3.92;2.55;;;13.70;52.80;;;;;;5035979;28;20033;-88
2022/04/18 07:44:09;;;;;;;5.28;2.63;;;14.00;52.50;;;;;;5045505;28;20029;-86
2022/04/18 07:46:35;;;;;;;5.30;3.10;;;14.30;52.30;;;;;;5021420;28;20116;-87
2022/04/18 07:49:01;;;;;;;4.20;2.83;;;14.50;52.10;;;;;;5043206;28;20398;-88
2022/04/18 07:51:34;;;;;;;2.47;2.25;;;14.80;51.60;;;;;;5016958;28;20029;-85
2022/04/18 07:54:19;;;;;;;3.22;2.78;;;15.10;51.30;;;;;;5037294;28;20018;-90
2022/04/18 07:56:45;;;;;;;3.20;2.45;;;15.40;50.70;;;;;;5033096;28;20032;-88
2022/04/18 08:04:17;;;;;;;4.00;2.50;;;16.30;50.40;;;;;;4995107;28;20035;-90
2022/04/18 08:06:44;;;;;;;4.63;3.03;;;16.60;50.00;;;;;;5200029;23;20079;-87
2022/04/18 08:09:10;;;;;;;4.55;2.60;;;16.90;49.60;;;;;;5045366;22;20077;-89
2022/04/18 08:11:36;;;;;;;3.28;2.65;;;17.20;49.20;;;;;;5008374;28;20023;-88
2022/04/18 08:16:37;;;;;;;3.45;2.67;;;17.60;48.80;;;;;;5015946;22;20062;-86
2022/04/18 08:19:04;;;;;;;4.30;2.63;;;17.80;48.00;;;;;;5194741;23;20119;-88
2022/04/18 08:21:29;;;;;;;3.05;2.53;;;18.10;47.80;;;;;;4975508;28;20106;-86
2022/04/18 08:23:55;;;;;;;4.07;2.70;;;18.30;47.40;;;;;;4968578;28;20046;-85
2022/04/18 08:28:49;;;;;;;6.15;2.95;;;18.90;46.70;;;;;;5005975;28;20077;-84
2022/04/18 08:31:14;;;;;;;3.95;2.70;;;19.10;46.40;;;;;;4998333;28;20042;-83
2022/04/18 08:33:40;;;;;;;4.75;2.92;;;19.30;45.80;;;;;;4979633;28;20019;-83
2022/04/18 08:36:06;;;;;;;4.65;2.78;;;19.50;45.50;;;;;;4973487;28;20499;-82
2022/04/18 08:38:32;;;;;;;3.83;2.95;;;19.70;45.00;;;;;;4981011;28;20586;-82
2022/04/18 08:41:01;;;;;;;4.35;2.67;;;19.90;45.30;;;;;;4956743;28;20027;-86
2022/04/18 08:43:27;;;;;;;2.97;2.63;;;20.10;44.40;;;;;;4971545;28;20104;-86
2022/04/18 08:45:52;;;;;;;4.78;2.80;;;20.30;44.10;;;;;;4954721;28;20122;-87
2022/04/18 08:53:47;;;;;;;3.63;3.00;;;20.90;42.80;;;;;;4976290;28;20029;-85
2022/04/18 08:56:13;;;;;;;3.00;2.45;;;21.00;42.40;;;;;;4958042;28;20027;-84
2022/04/18 08:58:40;;;;;;;3.72;2.70;;;21.20;42.50;;;;;;4971887;28;20118;-85
2022/04/18 09:01:07;;;;;;;3.38;2.53;;;21.40;42.20;;;;;;4957280;28;20042;-80
2022/04/18 09:03:34;;;;;;;4.38;2.58;;;21.60;42.00;;;;;;4953339;28;20041;-82
2022/04/18 09:06:08;;;;;;;2.63;2.42;;;21.80;41.60;;;;;;4956472;28;20031;-81
2022/04/18 09:08:41;;;;;;;2.90;2.53;;;22.10;41.10;;;;;;4956212;28;20035;-81
2022/04/18 09:11:07;;;;;;;3.70;2.83;;;22.40;40.80;;;;;;4975945;28;20031;-84
2022/04/18 09:13:33;;;;;;;4.47;3.00;;;22.70;40.70;;;;;;4958907;28;20027;-83
2022/04/18 09:15:59;;;;;;;4.50;2.83;;;23.10;39.70;;;;;;4958083;28;20065;-85
2022/04/18 09:18:26;;;;;;;3.20;2.28;;;23.50;39.00;;;;;;4957683;28;20070;-86
2022/04/18 09:20:54;;;;;;;3.92;2.60;;;23.90;38.50;;;;;;4977658;28;20026;-85
2022/04/18 09:23:29;;;;;;;3.47;2.35;;;24.30;37.50;;;;;;4970821;28;20027;-87
2022/04/18 09:25:59;;;;;;;4.18;2.47;;;24.80;36.70;;;;;;4975368;28;20031;-86
2022/04/18 09:28:28;;;;;;;3.78;2.42;;;25.20;35.80;;;;;;4959700;28;20031;-85
2022/04/18 09:31:01;;;;;;;3.70;1.88;;;25.50;35.30;;;;;;4956712;28;20031;-84
2022/04/18 09:33:31;;;;;;;3.05;1.90;;;25.90;34.30;;;;;;4975349;28;20491;-89
2022/04/18 09:36:12;;;;;;;2.20;2.00;;;26.20;33.90;;;;;;4947587;28;20097;-85
2022/04/18 09:38:49;;;;;;;4.85;2.30;;;26.50;33.50;;;;;;4964505;28;20142;-82
2022/04/18 09:41:20;;;;;;;2.55;2.17;;;26.80;33.60;;;;;;4964425;28;20031;-85
2022/04/18 09:43:48;;;;;;;2.50;2.00;;;27.30;33.30;;;;;;4962244;28;20292;-84
2022/04/18 09:46:14;;;;;;;3.17;2.00;;;27.70;33.00;;;;;;4979153;28;20030;-85
2022/04/18 09:48:42;;;;;;;2.35;1.88;;;27.70;32.40;;;;;;4979427;28;20034;-82
2022/04/18 09:51:15;;;;;;;3.50;1.90;;;27.90;32.00;;;;;;4976560;28;20046;-84
2022/04/18 09:53:46;;;;;;;2.88;1.77;;;27.90;31.40;;;;;;4964657;28;20040;-81
2022/04/18 09:56:17;;;;;;;2.10;1.70;;;27.90;31.40;;;;;;4978042;28;20563;-85
2022/04/18 09:58:43;;;;;;;2.75;1.70;;;27.70;31.40;;;;;;4958490;28;20038;-85
2022/04/18 10:01:10;;;;;;;4.50;2.08;;;27.70;31.60;;;;;;4979463;28;20031;-84
2022/04/18 10:03:37;;;;;;;2.95;2.10;;;27.60;31.50;;;;;;4958916;28;22285;-85
2022/04/18 10:06:04;;;;;;;2.30;2.05;;;27.50;31.70;;;;;;4959159;28;20067;-84
2022/04/18 10:08:30;;;;;;;2.45;1.92;;;27.40;31.80;;;;;;4961177;28;20103;-83
2022/04/18 10:10:57;;;;;;;2.20;1.92;;;27.00;31.60;;;;;;4961171;28;20027;-84
2022/04/18 10:13:23;;;;;;;2.45;2.05;;;27.00;31.80;;;;;;4959218;28;20020;-84
2022/04/18 10:15:51;;;;;;;4.22;2.75;;;27.30;31.60;;;;;;5000092;28;20091;-83
2022/04/18 10:18:17;;;;;;;3.80;2.20;;;27.80;31.30;;;;;;4990475;28;20039;-83
2022/04/18 10:20:58;;;;;;;2.63;2.13;;;28.10;30.80;;;;;;4986008;28;20031;-83
2022/04/18 10:23:48;;;;;;;3.70;2.22;;;28.30;30.50;;;;;;4978996;28;20035;-84
2022/04/18 10:26:51;;;;;;;3.05;2.15;;;28.50;30.40;;;;;;4995507;28;20104;-84
2022/04/18 10:29:26;;;;;;;3.78;2.22;;;28.20;30.00;;;;;;4986621;28;20038;-84
2022/04/18 10:31:53;;;;;;;3.00;2.38;;;28.00;30.30;;;;;;4957701;28;20031;-81
2022/04/18 10:34:23;;;;;;;3.08;2.20;;;27.90;30.40;;;;;;4977973;28;20050;-84
2022/04/18 10:36:53;;;;;;;2.65;1.85;;;27.70;30.40;;;;;;4958668;28;20038;-84
2022/04/18 10:39:19;;;;;;;3.00;2.03;;;27.70;30.90;;;;;;4980938;28;20117;-84
2022/04/18 10:41:47;;;;;;;2.88;1.80;;;27.70;31.00;;;;;;4979905;28;20065;-83
2022/04/18 10:44:17;;;;;;;2.78;2.28;;;27.60;31.10;;;;;;4954221;28;20388;-83
2022/04/18 10:47:03;;;;;;;2.83;2.13;;;27.10;30.80;;;;;;4985006;28;20054;-84
2022/04/18 10:49:31;;;;;;;7.28;2.70;;;26.60;31.50;;;;;;4957668;28;20091;-84
2022/04/18 10:52:05;;;;;;;2.85;1.90;;;26.00;31.50;;;;;;4959009;28;20019;-84
2022/04/18 10:54:31;;;;;;;3.53;2.10;;;25.40;31.90;;;;;;4955074;28;20076;-84
2022/04/18 10:57:05;;;;;;;1.88;1.73;;;25.00;32.60;;;;;;4974032;28;20034;-84
2022/04/18 10:59:36;;;;;;;2.95;1.98;;;24.70;32.70;;;;;;4961791;28;20503;-84
2022/04/18 11:02:07;;;;;;;2.17;1.98;;;24.40;32.90;;;;;;4976689;28;20027;-84
2022/04/18 11:04:39;;;;;;;5.20;2.00;;;24.00;33.20;;;;;;4990018;28;20037;-83
2022/04/18 11:07:10;;;;;;;2.63;2.05;;;23.70;33.40;;;;;;4957523;28;20031;-84
2022/04/18 11:09:38;;;;;;;2.67;2.05;;;23.40;33.60;;;;;;4957255;28;20027;-84
2022/04/18 11:12:12;;;;;;;2.00;1.73;;;23.20;34.00;;;;;;4974681;28;20844;-83
2022/04/18 11:14:37;;;;;;;2.65;2.03;;;23.00;34.10;;;;;;4978221;28;20093;-84
2022/04/18 11:17:04;;;;;;;2.10;1.80;;;22.80;34.40;;;;;;4990525;28;20490;-84
2022/04/18 11:19:41;;;;;;;3.13;2.03;;;22.60;34.40;;;;;;4975094;28;20023;-84
2022/04/18 11:22:18;;;;;;;7.53;1.83;;;22.60;34.50;;;;;;4979502;28;20027;-82
2022/04/18 11:24:49;;;;;;;5.00;1.88;;;22.50;34.80;;;;;;4954248;28;20055;-84
2022/04/18 11:27:16;;;;;;;2.60;1.77;;;22.30;34.70;;;;;;4958663;28;20458;-84
2022/04/18 11:29:50;;;;;;;3.72;1.90;;;22.10;35.10;;;;;;4975970;28;20023;-84
2022/04/18 11:32:17;;;;;;;3.67;1.83;;;22.00;35.30;;;;;;4958552;28;20058;-84
2022/04/18 11:34:47;;;;;;;2.55;1.83;;;21.80;35.20;;;;;;4972688;28;20033;-84
2022/04/18 11:37:23;;;;;;;2.72;1.73;;;21.60;35.50;;;;;;4957310;28;20106;-84
2022/04/18 11:39:51;;;;;;;4.45;1.80;;;21.40;35.00;;;;;;4955919;28;20615;-84
2022/04/18 11:42:19;;;;;;;2.00;1.70;;;21.10;35.20;;;;;;4955303;28;20110;-84
2022/04/18 11:44:46;;;;;;;2.63;2.03;;;20.80;35.70;;;;;;4955528;28;20035;-84
2022/04/18 11:47:14;;;;;;;5.88;1.60;;;20.70;36.00;;;;;;4957161;28;20126;-83
2022/04/18 11:49:41;;;;;;;3.97;1.70;;;20.70;36.20;;;;;;4972994;28;20023;-84
2022/04/18 11:52:23;;;;;;;3.00;1.52;;;20.70;36.40;;;;;;4978212;28;20740;-84
2022/04/18 11:55:11;;;;;;;2.00;1.50;;;20.90;36.20;;;;;;4961402;28;20117;-84
2022/04/18 11:57:38;;;;;;;1.67;1.38;;;20.80;36.00;;;;;;4974382;28;20027;-84
2022/04/18 12:00:13;;;;;;;1.75;1.40;;;20.80;36.20;;;;;;4962351;28;20035;-84
2022/04/18 12:08:12;;;;;;;1.52;1.42;;;20.50;36.80;;;;;;4994826;28;20085;-84
2022/04/18 12:10:42;;;;;;;1.40;1.20;;;20.40;36.40;;;;;;4985966;28;20057;-82
2022/04/18 12:13:13;;;;;;;1.83;1.52;;;20.40;36.60;;;;;;4987450;28;20023;-82
2022/04/18 12:15:40;;;;;;;1.52;1.42;;;20.40;36.70;;;;;;4980527;28;20023;-82
2022/04/18 12:18:13;;;;;;;2.60;1.70;;;20.30;36.60;;;;;;4966113;28;20042;-83
2022/04/18 12:20:42;;;;;;;3.55;1.27;;;20.30;36.50;;;;;;4959758;28;20026;-81
2022/04/18 12:23:09;;;;;;;1.38;1.27;;;20.30;36.80;;;;;;4951595;28;20031;-83
2022/04/18 12:25:35;;;;;;;1.75;1.20;;;20.40;37.00;;;;;;4968307;28;20114;-82
2022/04/18 12:28:04;;;;;;;2.65;1.50;;;20.50;36.90;;;;;;4949368;28;20049;-83
2022/04/18 12:30:30;;;;;;;1.73;1.40;;;20.60;36.70;;;;;;4952779;28;20027;-83
2022/04/18 12:33:09;;;;;;;5.03;1.38;;;20.80;37.20;;;;;;4953119;28;20026;-84
2022/04/18 12:35:42;;;;;;;2.03;1.45;;;21.00;36.90;;;;;;4969343;28;20495;-84
2022/04/18 12:38:13;;;;;;;2.28;1.35;;;21.10;36.40;;;;;;4964152;28;20102;-84
2022/04/18 12:40:46;;;;;;;1.95;1.20;;;21.10;36.40;;;;;;4956368;28;20632;-84
2022/04/18 12:43:16;;;;;;;2.05;1.33;;;21.00;36.30;;;;;;4954399;28;20030;-83
2022/04/18 12:45:45;;;;;;;1.00;0.93;;;20.90;36.20;;;;;;4967998;28;20030;-83
2022/04/18 12:48:11;;;;;;;2.13;1.20;;;20.90;36.40;;;;;;4978113;28;20035;-83
2022/04/18 12:50:38;;;;;;;1.58;1.27;;;20.90;36.50;;;;;;4961515;28;20035;-85
2022/04/18 12:53:03;;;;;;;1.40;1.30;;;20.80;36.40;;;;;;4975995;28;20034;-85
2022/04/18 12:55:30;;;;;;;0.95;0.93;;;20.90;36.60;;;;;;4972749;28;20141;-81
2022/04/18 12:57:57;;;;;;;1.90;1.23;;;20.90;36.50;;;;;;4959975;28;20123;-80
2022/04/18 13:00:23;;;;;;;3.35;1.33;;;20.80;36.20;;;;;;4969819;28;20050;-83
2022/04/18 13:03:01;;;;;;;0.95;0.88;;;20.70;36.60;;;;;;4954448;28;20065;-80
2022/04/18 13:05:31;;;;;;;1.13;1.00;;;20.60;37.50;;;;;;4946333;28;20487;-82
2022/04/18 13:08:01;;;;;;;2.92;1.40;;;20.60;37.40;;;;;;4971323;28;20035;-83
2022/04/18 13:10:28;;;;;;;2.40;1.50;;;20.70;38.50;;;;;;4982561;28;20035;-81
2022/04/18 13:13:07;;;;;;;1.45;1.02;;;20.80;38.10;;;;;;4976845;28;20026;-82
2022/04/18 13:15:34;;;;;;;2.22;1.05;;;20.80;38.10;;;;;;4955048;28;20031;-83
2022/04/18 13:18:07;;;;;;;1.75;1.20;;;20.70;38.10;;;;;;4957822;28;20819;-84
2022/04/18 13:20:33;;;;;;;1.38;1.17;;;20.60;38.00;;;;;;4957358;28;20023;-83
2022/04/18 13:23:01;;;;;;;1.50;1.30;;;20.50;38.20;;;;;;4975125;28;20030;-82
2022/04/18 13:25:27;;;;;;;1.55;1.10;;;20.50;38.30;;;;;;4978669;28;20030;-82
2022/04/18 13:27:54;;;;;;;3.45;1.35;;;20.30;38.20;;;;;;4956276;28;20038;-82
2022/04/18 13:30:25;;;;;;;1.85;1.30;;;20.20;38.20;;;;;;4958435;28;20031;-81